Time;durP1;ratioP1;P1;durP2;ratioP2;P2;SDS_P1;SDS_P2;PMS_P1;PMS_P2;Temp;Humidity;BMP_temperature;BMP_pressure;BME280_temperature;BME280_humidity;BME280_pressure;Samples;Min_cycle;Max_cycle;Signal;HPM_P1;HPM_P2
2021/06/12 00:00:32;;;;;;;6.85;4.20;;;;;;;15.12;92.52;100121.48;1712096;84;21361;-54
2021/06/12 00:03:39;;;;;;;5.92;4.10;;;;;;;15.11;92.56;100118.37;1682131;85;21370;-55
2021/06/12 00:06:44;;;;;;;6.10;4.28;;;;;;;15.10;92.45;100114.45;1675976;85;21257;-56
2021/06/12 00:09:50;;;;;;;5.60;4.28;;;;;;;15.10;92.43;100113.08;1684826;85;21240;-55
2021/06/12 00:12:59;;;;;;;6.75;3.90;;;;;;;15.08;92.21;100113.30;1748388;82;21524;-54
2021/06/12 00:16:07;;;;;;;5.80;4.22;;;;;;;15.05;92.00;100111.52;1712710;84;21972;-54
2021/06/12 00:19:16;;;;;;;6.95;4.35;;;;;;;15.04;92.25;100113.41;1712375;84;21373;-54
2021/06/12 00:22:22;;;;;;;8.55;4.50;;;;;;;15.04;92.38;100110.66;1682575;85;21459;-56
2021/06/12 00:25:32;;;;;;;5.45;4.70;;;;;;;15.05;92.41;100108.76;1712434;84;21365;-55
2021/06/12 00:28:38;;;;;;;4.72;4.00;;;;;;;15.08;92.61;100107.78;1682426;85;21386;-54
2021/06/12 00:31:43;;;;;;;7.15;5.17;;;;;;;15.08;92.65;100099.50;1712566;84;21258;-54
2021/06/12 00:34:52;;;;;;;7.75;5.03;;;;;;;15.09;92.64;100105.88;1682394;85;21399;-54
2021/06/12 00:37:58;;;;;;;4.83;4.30;;;;;;;15.07;92.33;100101.95;1712238;84;21192;-54
2021/06/12 00:41:03;;;;;;;6.70;5.50;;;;;;;15.06;92.19;100097.52;1682767;85;21263;-54
2021/06/12 00:44:09;;;;;;;5.35;4.65;;;;;;;15.07;92.25;100110.23;1712694;84;21337;-55
2021/06/12 00:47:14;;;;;;;7.00;6.30;;;;;;;15.08;92.12;100105.02;1681784;84;21355;-56
2021/06/12 00:50:20;;;;;;;8.50;5.03;;;;;;;15.10;92.20;100109.80;1682553;85;21429;-56
2021/06/12 00:53:43;;;;;;;8.28;5.87;;;;;;;15.14;92.30;100108.34;1682587;85;21224;-55
2021/06/12 00:56:47;;;;;;;8.18;5.78;;;;;;;15.17;92.34;100108.42;1713114;84;21406;-54
2021/06/12 00:59:52;;;;;;;7.60;6.22;;;;;;;15.22;92.19;100111.41;1712348;83;21355;-54
2021/06/12 01:02:59;;;;;;;8.25;6.58;;;;;;;15.24;92.23;100112.05;1712987;83;21199;-54
2021/06/12 01:06:04;;;;;;;8.93;6.67;;;;;;;15.29;92.34;100113.09;1713311;83;21392;-55
2021/06/12 01:09:09;;;;;;;9.13;7.15;;;;;;;15.34;92.27;100113.30;1681568;85;21252;-55
2021/06/12 01:12:30;;;;;;;12.88;7.75;;;;;;;15.38;92.29;100110.46;1682315;85;21374;-55
2021/06/12 01:15:51;;;;;;;17.15;7.92;;;;;;;15.43;92.27;100112.61;1682135;85;21420;-55
2021/06/12 01:18:54;;;;;;;11.63;8.15;;;;;;;15.47;92.23;100113.34;1713083;84;21339;-55
2021/06/12 01:21:59;;;;;;;15.30;8.55;;;;;;;15.51;92.24;100115.11;1712799;83;21354;-56
2021/06/12 01:25:35;;;;;;;18.70;9.23;;;;;;;15.55;92.15;100108.98;1713147;83;21226;-56
2021/06/12 01:29:13;;;;;;;27.95;10.03;;;;;;;15.58;91.97;100116.83;1682163;85;21414;-56
2021/06/12 01:32:18;;;;;;;28.02;10.20;;;;;;;15.60;92.03;100116.05;1682514;85;21797;-56
2021/06/12 01:35:44;;;;;;;47.17;10.93;;;;;;;15.63;92.25;100110.13;1713070;84;21359;-55
2021/06/12 01:38:52;;;;;;;47.67;10.85;;;;;;;15.67;92.29;100117.42;1712926;83;21363;-56
2021/06/12 01:41:59;;;;;;;30.37;10.70;;;;;;;15.69;92.37;100120.31;1690007;84;21377;-56
2021/06/12 01:45:04;;;;;;;48.17;11.35;;;;;;;15.72;92.49;100121.77;1690739;84;21389;-56
2021/06/12 01:48:09;;;;;;;50.73;10.78;;;;;;;15.75;92.47;100122.20;1681225;83;21244;-55
2021/06/12 01:51:14;;;;;;;35.05;11.30;;;;;;;15.76;92.46;100122.50;1677555;85;21249;-55
2021/06/12 01:54:19;;;;;;;38.98;11.65;;;;;;;15.78;92.44;100112.11;1677780;85;21240;-55
2021/06/12 01:57:24;;;;;;;33.00;11.48;;;;;;;15.81;92.39;100119.13;1647997;85;21363;-56
2021/06/12 02:00:29;;;;;;;46.77;12.35;;;;;;;15.83;92.43;100110.07;1677635;85;21259;-55
2021/06/12 02:03:35;;;;;;;23.50;11.00;;;;;;;15.84;92.44;100111.23;1677583;85;21754;-56
2021/06/12 02:06:40;;;;;;;41.50;11.73;;;;;;;15.84;92.17;100115.37;1677103;85;21325;-55
2021/06/12 02:09:47;;;;;;;27.00;11.22;;;;;;;15.85;92.06;100124.52;1677020;85;21784;-56
2021/06/12 02:12:51;;;;;;;34.35;12.00;;;;;;;15.84;92.09;100118.14;1650332;85;21778;-56
2021/06/12 02:16:02;;;;;;;24.82;11.43;;;;;;;15.84;92.20;100116.75;1677135;85;21264;-55
2021/06/12 02:19:08;;;;;;;16.27;10.75;;;;;;;15.88;92.36;100122.17;1677158;85;21825;-55
2021/06/12 02:22:13;;;;;;;23.52;11.78;;;;;;;15.91;92.31;100121.73;1677290;85;21193;-55
2021/06/12 02:25:19;;;;;;;38.38;12.15;;;;;;;15.93;92.41;100122.37;1677048;85;21303;-55
2021/06/12 02:28:25;;;;;;;21.77;11.40;;;;;;;15.97;92.49;100125.01;1677207;85;21826;-55
2021/06/12 02:31:34;;;;;;;17.45;11.83;;;;;;;16.01;92.56;100124.05;1677135;85;21224;-55
2021/06/12 02:34:40;;;;;;;13.78;11.10;;;;;;;16.04;92.55;100124.47;1677556;85;21260;-55
2021/06/12 02:37:47;;;;;;;18.27;11.53;;;;;;;16.08;92.51;100125.72;1677690;85;21596;-55
2021/06/12 02:40:52;;;;;;;20.27;11.93;;;;;;;16.09;92.43;100126.02;1677532;85;21233;-54
2021/06/12 02:43:57;;;;;;;17.65;12.25;;;;;;;16.11;92.35;100125.27;1677448;85;21283;-54
2021/06/12 02:47:05;;;;;;;15.48;11.60;;;;;;;16.12;92.37;100128.37;1677562;85;21236;-54
2021/06/12 02:50:10;;;;;;;13.98;12.45;;;;;;;16.15;92.55;100119.66;1689465;83;21227;-55
2021/06/12 02:53:17;;;;;;;15.28;12.65;;;;;;;16.19;92.64;100122.27;1690092;85;21313;-56
2021/06/12 02:56:23;;;;;;;17.25;12.75;;;;;;;16.23;92.68;100125.45;1690228;85;21369;-55
2021/06/12 02:59:28;;;;;;;15.50;13.08;;;;;;;16.25;92.77;100129.68;1690097;85;21382;-54
2021/06/12 03:02:33;;;;;;;18.32;13.72;;;;;;;16.27;92.74;100131.70;1690195;85;21401;-55
2021/06/12 03:05:42;;;;;;;14.15;12.58;;;;;;;16.31;92.85;100139.03;1690226;85;21256;-55
2021/06/12 03:08:55;;;;;;;16.15;13.62;;;;;;;16.35;93.02;100138.36;1690267;84;21427;-55
2021/06/12 03:12:01;;;;;;;15.05;13.45;;;;;;;16.42;93.04;100143.34;1690149;85;21240;-55
2021/06/12 03:15:07;;;;;;;14.05;12.10;;;;;;;16.49;92.93;100150.78;1690137;85;21433;-54
2021/06/12 03:18:12;;;;;;;15.25;13.30;;;;;;;16.53;92.83;100143.20;1690145;85;21334;-54
2021/06/12 03:21:17;;;;;;;18.40;13.10;;;;;;;16.60;92.75;100138.51;1690103;85;21552;-55
2021/06/12 03:24:24;;;;;;;16.23;14.03;;;;;;;16.65;92.62;100141.43;1690054;85;21263;-56
2021/06/12 03:27:29;;;;;;;16.20;12.50;;;;;;;16.71;92.41;100141.09;1690132;85;21370;-56
2021/06/12 03:30:37;;;;;;;13.55;12.15;;;;;;;16.79;92.46;100143.05;1690161;85;21405;-56
2021/06/12 03:33:43;;;;;;;14.93;12.58;;;;;;;16.88;92.22;100144.50;1690078;85;21879;-56
2021/06/12 03:36:48;;;;;;;14.03;12.50;;;;;;;16.96;91.83;100160.83;1690113;85;21255;-54
2021/06/12 03:39:54;;;;;;;14.20;12.68;;;;;;;17.05;91.43;100155.34;1690070;85;21444;-54
2021/06/12 03:43:00;;;;;;;15.70;12.98;;;;;;;17.17;91.35;100156.86;1690208;85;21240;-55
2021/06/12 03:46:06;;;;;;;15.70;13.48;;;;;;;17.32;91.32;100162.91;1690016;85;21219;-55
2021/06/12 03:49:13;;;;;;;14.78;12.28;;;;;;;17.45;91.00;100158.69;1690096;85;21232;-54
2021/06/12 03:52:19;;;;;;;15.32;13.62;;;;;;;17.59;90.62;100154.72;1689997;84;21414;-54
2021/06/12 03:55:24;;;;;;;15.93;13.00;;;;;;;17.69;90.21;100163.38;1690198;85;21336;-56
2021/06/12 03:58:29;;;;;;;15.43;13.70;;;;;;;17.79;89.79;100159.56;1673060;84;21378;-56
2021/06/12 04:01:34;;;;;;;16.70;13.98;;;;;;;17.87;89.37;100163.39;1689844;84;21208;-56
2021/06/12 04:04:42;;;;;;;17.62;14.25;;;;;;;17.96;88.96;100171.74;1690306;84;21385;-55
2021/06/12 04:07:48;;;;;;;17.55;14.28;;;;;;;18.02;88.43;100163.04;1690181;84;21223;-55
2021/06/12 04:10:53;;;;;;;15.25;13.60;;;;;;;18.07;88.08;100168.74;1690506;84;21291;-54
2021/06/12 04:14:00;;;;;;;15.08;13.30;;;;;;;18.12;87.88;100175.83;1690713;84;21867;-55
2021/06/12 04:17:07;;;;;;;15.78;13.50;;;;;;;18.20;87.67;100174.14;1690189;84;21358;-54
2021/06/12 04:20:12;;;;;;;15.93;13.60;;;;;;;18.28;87.33;100170.55;1690136;85;21231;-54
2021/06/12 04:23:18;;;;;;;16.75;12.80;;;;;;;18.36;87.02;100173.54;1690223;85;21429;-55
2021/06/12 04:26:23;;;;;;;15.65;14.05;;;;;;;18.43;86.88;100172.41;1690128;84;21377;-55
2021/06/12 04:29:29;;;;;;;15.58;13.60;;;;;;;18.52;86.50;100179.32;1690206;84;21417;-56
2021/06/12 04:32:35;;;;;;;15.80;14.05;;;;;;;18.58;86.20;100176.17;1690443;84;21357;-56
2021/06/12 04:35:41;;;;;;;15.58;13.38;;;;;;;18.64;86.21;100176.63;1689310;84;21380;-54
2021/06/12 04:38:48;;;;;;;14.45;12.95;;;;;;;18.73;86.07;100180.76;1690164;84;21271;-55
2021/06/12 04:41:54;;;;;;;14.78;12.93;;;;;;;18.81;85.87;100187.38;1690315;84;21203;-56
2021/06/12 04:45:00;;;;;;;16.50;13.90;;;;;;;18.88;85.68;100191.78;1690278;84;21414;-55
2021/06/12 04:48:06;;;;;;;16.60;13.93;;;;;;;18.96;85.63;100185.87;1690075;85;21385;-56
2021/06/12 04:51:12;;;;;;;17.90;13.68;;;;;;;19.08;85.49;100188.17;1691245;81;21232;-56
2021/06/12 04:54:17;;;;;;;14.80;12.40;;;;;;;19.21;85.38;100187.13;1690333;84;21738;-55
2021/06/12 04:57:23;;;;;;;14.05;12.47;;;;;;;19.34;85.09;100189.18;1689756;84;21745;-55
2021/06/12 05:00:30;;;;;;;15.48;12.80;;;;;;;19.44;84.79;100191.94;1690016;85;21240;-55
2021/06/12 05:03:37;;;;;;;14.63;12.45;;;;;;;19.54;84.40;100192.19;1690453;84;21366;-56
2021/06/12 05:06:42;;;;;;;14.23;11.25;;;;;;;19.65;84.05;100189.44;1690196;84;21398;-56
2021/06/12 05:09:47;;;;;;;11.33;10.13;;;;;;;19.76;83.63;100183.58;1674056;84;21390;-57
2021/06/12 05:12:54;;;;;;;10.43;9.33;;;;;;;19.86;82.98;100184.70;1689882;85;21358;-57
2021/06/12 05:16:01;;;;;;;9.55;7.40;;;;;;;19.94;82.47;100185.73;1689935;85;21247;-57
2021/06/12 05:19:07;;;;;;;7.78;6.03;;;;;;;20.01;81.27;100184.22;1690105;84;21200;-57
2021/06/12 05:22:15;;;;;;;6.15;5.35;;;;;;;20.07;79.97;100180.47;1689989;85;21343;-56
2021/06/12 05:25:22;;;;;;;6.28;4.60;;;;;;;20.07;78.79;100186.88;1689967;84;21402;-56
2021/06/12 05:28:28;;;;;;;7.15;4.72;;;;;;;20.10;78.12;100186.93;1690065;85;21887;-56
2021/06/12 05:31:34;;;;;;;6.95;4.92;;;;;;;20.15;77.64;100194.03;1690148;85;21369;-56
2021/06/12 05:34:40;;;;;;;6.65;5.10;;;;;;;20.19;77.24;100189.67;1690027;84;21433;-56
2021/06/12 05:37:46;;;;;;;5.62;4.78;;;;;;;20.26;77.12;100197.35;1661809;86;21422;-56
2021/06/12 05:40:51;;;;;;;6.72;4.60;;;;;;;20.31;77.16;100198.86;1645629;86;21374;-55
2021/06/12 05:43:57;;;;;;;9.53;5.00;;;;;;;20.36;77.07;100193.42;1661131;86;21219;-56
2021/06/12 05:47:02;;;;;;;15.10;6.47;;;;;;;20.48;77.20;100198.41;1662206;86;21394;-55
2021/06/12 05:50:07;;;;;;;15.68;6.12;;;;;;;20.59;76.93;100192.83;1684088;83;21763;-56
2021/06/12 05:53:13;;;;;;;8.35;5.03;;;;;;;20.73;76.29;100203.98;1688311;83;21788;-55
2021/06/12 05:56:19;;;;;;;7.65;4.97;;;;;;;20.85;75.85;100190.05;1689058;84;21409;-56
2021/06/12 05:59:24;;;;;;;7.35;4.60;;;;;;;20.97;74.87;100186.69;1689876;84;21374;-55
2021/06/12 06:02:29;;;;;;;6.72;4.05;;;;;;;21.06;74.75;100189.37;1689783;84;21220;-56
2021/06/12 06:05:36;;;;;;;4.15;3.55;;;;;;;21.10;74.11;100184.16;1689867;84;21319;-56
2021/06/12 06:08:42;;;;;;;4.90;3.60;;;;;;;21.18;73.33;100186.00;1689220;84;21398;-56
2021/06/12 06:11:48;;;;;;;7.22;4.10;;;;;;;21.25;72.91;100179.71;1690221;84;21358;-56
2021/06/12 06:14:54;;;;;;;6.03;4.40;;;;;;;21.40;72.75;100186.97;1689860;85;21387;-55
2021/06/12 06:18:00;;;;;;;9.48;4.92;;;;;;;21.50;73.07;100183.52;1690154;84;21386;-55
2021/06/12 06:21:06;;;;;;;6.92;4.22;;;;;;;21.56;72.46;100184.76;1690050;84;21911;-55
2021/06/12 06:24:13;;;;;;;5.62;4.17;;;;;;;21.62;71.82;100175.39;1689790;85;21402;-55
2021/06/12 06:27:19;;;;;;;7.85;4.65;;;;;;;21.75;71.47;100183.95;1688684;85;21291;-56
2021/06/12 06:30:25;;;;;;;7.00;4.10;;;;;;;21.84;70.56;100181.06;1660444;86;21390;-56
2021/06/12 06:33:30;;;;;;;5.67;4.25;;;;;;;21.93;70.07;100176.74;1660054;86;21236;-55
2021/06/12 06:36:37;;;;;;;7.30;4.53;;;;;;;22.06;69.13;100173.61;1659971;86;21367;-55
2021/06/12 06:39:42;;;;;;;5.05;4.42;;;;;;;22.20;68.77;100174.40;1660740;86;21216;-56
2021/06/12 06:42:47;;;;;;;5.85;4.30;;;;;;;22.31;67.54;100182.92;1662611;83;21362;-56
2021/06/12 06:45:53;;;;;;;7.58;4.67;;;;;;;22.42;67.39;100177.78;1689149;84;21705;-56
2021/06/12 06:49:00;;;;;;;6.62;5.10;;;;;;;22.47;67.09;100179.25;1689339;84;21800;-55
2021/06/12 06:52:05;;;;;;;5.92;4.75;;;;;;;22.51;66.41;100185.45;1688877;84;21840;-56
2021/06/12 06:55:10;;;;;;;5.22;4.30;;;;;;;22.51;65.92;100179.02;1684867;83;21212;-56
2021/06/12 06:58:15;;;;;;;6.03;4.80;;;;;;;22.55;66.23;100183.02;1712622;83;21366;-57
2021/06/12 07:01:20;;;;;;;7.05;5.08;;;;;;;22.58;66.14;100188.09;1710248;83;21227;-57
2021/06/12 07:04:25;;;;;;;9.30;5.05;;;;;;;22.58;66.07;100186.12;1683369;84;21994;-56
2021/06/12 07:07:31;;;;;;;7.05;5.25;;;;;;;22.64;66.19;100182.86;1683809;84;21224;-57
2021/06/12 07:10:36;;;;;;;6.10;4.75;;;;;;;22.65;66.42;100188.72;1684556;84;21244;-56
2021/06/12 07:13:43;;;;;;;6.60;4.90;;;;;;;22.66;66.73;100187.64;1684496;84;21255;-57
2021/06/12 07:16:48;;;;;;;5.97;4.53;;;;;;;22.73;66.63;100189.13;1684158;84;21236;-57
2021/06/12 07:19:53;;;;;;;8.48;5.30;;;;;;;22.80;65.55;100186.14;1684655;84;21208;-57
2021/06/12 07:22:58;;;;;;;5.42;4.37;;;;;;;22.92;65.44;100192.42;1684861;84;21205;-57
2021/06/12 07:26:04;;;;;;;9.68;4.75;;;;;;;23.08;65.07;100191.50;1703575;83;21255;-57
2021/06/12 07:29:09;;;;;;;5.67;4.78;;;;;;;23.24;64.65;100192.81;1713596;83;21351;-56
2021/06/12 07:32:15;;;;;;;5.80;4.87;;;;;;;23.38;64.28;100187.13;1711848;83;21350;-56
2021/06/12 07:35:20;;;;;;;5.08;4.55;;;;;;;23.47;64.05;100185.53;1712125;83;21386;-56
2021/06/12 07:38:26;;;;;;;5.85;5.05;;;;;;;23.57;63.54;100180.05;1711541;83;21265;-55
2021/06/12 07:41:31;;;;;;;6.72;5.33;;;;;;;23.72;63.07;100182.14;1711695;83;21945;-56
2021/06/12 07:44:36;;;;;;;6.83;4.65;;;;;;;23.80;62.83;100183.60;1712509;83;21374;-57
2021/06/12 07:47:42;;;;;;;5.67;5.08;;;;;;;23.89;62.88;100181.98;1677083;85;21246;-56
2021/06/12 07:50:49;;;;;;;7.50;5.17;;;;;;;23.94;62.06;100181.48;1708384;83;21232;-55
2021/06/12 07:53:53;;;;;;;6.87;5.60;;;;;;;24.06;62.24;100181.31;1710895;83;21377;-56
2021/06/12 07:56:58;;;;;;;6.80;5.05;;;;;;;24.14;61.89;100182.20;1702997;83;21228;-57
2021/06/12 08:00:03;;;;;;;6.75;5.75;;;;;;;24.21;60.95;100182.83;1704649;83;21252;-56
2021/06/12 08:03:09;;;;;;;7.67;5.85;;;;;;;24.27;60.07;100176.15;1707710;82;21183;-57
2021/06/12 08:06:15;;;;;;;6.75;5.92;;;;;;;24.22;60.48;100180.30;1697611;84;21247;-56
2021/06/12 08:09:22;;;;;;;7.47;6.15;;;;;;;24.07;60.25;100179.64;1694706;83;21240;-56
2021/06/12 08:12:27;;;;;;;8.90;6.35;;;;;;;23.94;61.16;100185.69;1682702;84;21343;-56
2021/06/12 08:15:32;;;;;;;8.75;6.10;;;;;;;23.75;62.11;100176.56;1683145;84;21773;-56
2021/06/12 08:18:37;;;;;;;7.97;6.67;;;;;;;23.55;62.49;100175.27;1683458;84;21883;-58
2021/06/12 08:21:44;;;;;;;7.45;6.10;;;;;;;23.37;62.89;100184.59;1683876;85;21339;-56
2021/06/12 08:24:51;;;;;;;11.20;7.10;;;;;;;23.14;63.36;100179.27;1685335;85;21379;-57
2021/06/12 08:28:05;;;;;;;10.00;7.10;;;;;;;22.95;64.42;100184.91;1684648;85;21366;-56
2021/06/12 08:31:11;;;;;;;9.15;7.95;;;;;;;22.76;64.99;100191.94;1683799;85;21449;-56
2021/06/12 08:34:17;;;;;;;5.75;5.08;;;;;;;22.55;66.01;100210.92;1684488;85;21394;-56
2021/06/12 08:37:22;;;;;;;7.03;5.20;;;;;;;22.26;67.66;100210.19;1684056;84;21220;-56
2021/06/12 08:40:29;;;;;;;7.22;4.55;;;;;;;21.88;69.12;100205.95;1684076;84;21433;-54
2021/06/12 08:43:35;;;;;;;8.85;5.42;;;;;;;21.62;70.44;100200.46;1694450;84;21382;-55
2021/06/12 08:46:42;;;;;;;7.50;5.70;;;;;;;21.31;71.59;100200.98;1684230;85;21717;-54
2021/06/12 08:49:49;;;;;;;7.22;4.45;;;;;;;21.21;72.72;100204.98;1684338;85;21267;-55
2021/06/12 08:52:55;;;;;;;4.70;3.80;;;;;;;21.18;72.89;100200.46;1684597;85;21410;-56
2021/06/12 08:56:03;;;;;;;4.47;3.10;;;;;;;21.20;72.71;100216.37;1682684;85;21397;-56
2021/06/12 08:59:12;;;;;;;4.33;2.58;;;;;;;21.19;71.22;100200.20;1721623;83;21357;-56
2021/06/12 09:02:18;;;;;;;3.20;2.62;;;;;;;21.28;71.23;100200.09;1721826;83;21462;-56
2021/06/12 09:05:24;;;;;;;3.62;2.20;;;;;;;21.45;70.65;100201.00;1721748;83;21409;-55
2021/06/12 09:08:39;;;;;;;3.25;2.30;;;;;;;21.63;70.00;100202.14;1721623;83;21353;-55
2021/06/12 09:11:44;;;;;;;4.72;2.42;;;;;;;21.87;68.93;100207.89;1721345;83;21361;-55
2021/06/12 09:14:50;;;;;;;4.87;2.55;;;;;;;22.17;68.54;100202.80;1721278;83;21373;-55
2021/06/12 09:17:57;;;;;;;3.15;2.45;;;;;;;22.21;68.11;100204.53;1729269;82;21362;-55
2021/06/12 09:21:02;;;;;;;3.83;2.80;;;;;;;22.18;67.12;100198.90;1701894;83;21245;-56
2021/06/12 09:24:07;;;;;;;4.92;2.77;;;;;;;22.06;66.81;100202.89;1711636;84;21954;-56
2021/06/12 09:27:22;;;;;;;5.50;3.33;;;;;;;21.91;67.31;100197.91;1711727;84;21307;-57
2021/06/12 09:30:27;;;;;;;3.47;2.90;;;;;;;21.84;67.26;100197.25;1682334;85;21239;-56
2021/06/12 09:33:43;;;;;;;4.33;3.33;;;;;;;21.78;67.50;100182.94;1698639;84;21350;-56
2021/06/12 09:36:49;;;;;;;5.30;3.20;;;;;;;21.74;67.96;100181.71;1682304;85;21327;-56
2021/06/12 09:40:17;;;;;;;5.58;3.47;;;;;;;21.71;67.47;100186.94;1712830;84;21739;-56
2021/06/12 09:43:39;;;;;;;6.20;4.03;;;;;;;21.66;68.06;100204.42;1682578;85;21240;-55
2021/06/12 09:46:50;;;;;;;7.62;3.55;;;;;;;21.60;68.31;100205.97;1712714;84;21377;-56
2021/06/12 09:49:58;;;;;;;7.83;5.47;;;;;;;21.54;69.34;100202.27;1682653;85;21217;-55
2021/06/12 09:53:03;;;;;;;13.22;7.92;;;;;;;21.51;70.07;100197.73;1712733;84;21354;-56
2021/06/12 09:56:18;;;;;;;10.32;7.67;;;;;;;21.47;71.44;100195.17;1682359;85;21386;-55
2021/06/12 09:59:27;;;;;;;7.67;6.15;;;;;;;21.43;72.88;100189.79;1682962;84;21398;-53
2021/06/12 10:02:50;;;;;;;8.10;6.17;;;;;;;21.46;74.06;100183.72;1708367;84;21215;-54
2021/06/12 10:05:58;;;;;;;9.15;6.97;;;;;;;21.50;74.69;100177.38;1743316;82;21254;-55
2021/06/12 10:09:05;;;;;;;8.95;7.45;;;;;;;21.59;75.10;100172.25;1714798;83;21231;-56
2021/06/12 10:12:11;;;;;;;7.72;6.28;;;;;;;21.66;75.25;100172.95;1743991;82;21334;-56
2021/06/12 10:15:19;;;;;;;7.58;6.10;;;;;;;21.74;75.33;100175.31;1742673;82;21207;-56
2021/06/12 10:18:28;;;;;;;8.30;7.40;;;;;;;21.79;74.59;100166.50;1743842;82;21369;-55
2021/06/12 10:21:34;;;;;;;8.05;6.05;;;;;;;21.88;74.42;100176.69;1743338;82;21223;-55
2021/06/12 10:24:39;;;;;;;8.03;6.15;;;;;;;21.96;74.74;100166.51;1741728;82;21399;-55
2021/06/12 10:27:47;;;;;;;9.70;6.08;;;;;;;22.00;74.50;100163.48;1719928;82;21386;-55
2021/06/12 10:30:54;;;;;;;7.45;5.85;;;;;;;22.03;73.86;100173.59;1712510;83;21251;-56
2021/06/12 10:34:00;;;;;;;7.85;5.97;;;;;;;22.06;73.67;100180.05;1713615;83;21325;-56
2021/06/12 10:37:10;;;;;;;8.45;6.85;;;;;;;22.09;73.67;100185.11;1712281;83;21764;-58
2021/06/12 10:40:16;;;;;;;7.12;5.25;;;;;;;22.09;73.66;100187.04;1712020;83;21440;-54
2021/06/12 10:43:29;;;;;;;9.10;5.03;;;;;;;22.09;73.19;100185.11;1713398;83;21990;-55
2021/06/12 10:46:36;;;;;;;5.15;4.37;;;;;;;22.12;72.56;100188.77;1714485;83;21370;-55
2021/06/12 10:49:42;;;;;;;7.12;4.03;;;;;;;22.18;71.87;100175.77;1714461;83;21345;-56
2021/06/12 10:52:51;;;;;;;5.67;3.30;;;;;;;22.26;70.74;100160.53;1712585;83;21212;-56
2021/06/12 10:56:01;;;;;;;5.03;3.55;;;;;;;22.33;69.19;100149.47;1709177;82;21590;-55
2021/06/12 10:59:07;;;;;;;4.17;3.37;;;;;;;22.41;68.87;100145.38;1676788;83;21222;-55
2021/06/12 11:02:40;;;;;;;3.67;2.85;;;;;;;22.44;67.97;100151.88;1715344;82;21256;-56
2021/06/12 11:05:35;;;;;;;4.37;2.95;;;;;;;22.48;66.98;100146.91;1704060;82;21233;-55
2021/06/12 11:08:41;;;;;;;3.72;3.20;;;;;;;22.55;66.79;100139.20;1713604;82;21215;-55
2021/06/12 11:11:50;;;;;;;4.55;3.27;;;;;;;22.70;67.21;100128.78;1712636;83;21208;-55
2021/06/12 11:15:08;;;;;;;4.40;3.45;;;;;;;22.85;67.27;100117.23;1723217;82;21248;-56
2021/06/12 11:18:27;;;;;;;4.22;3.20;;;;;;;23.01;67.39;100115.45;1721071;82;21761;-56
2021/06/12 11:21:33;;;;;;;4.10;3.20;;;;;;;23.18;67.40;100112.84;1690469;85;21247;-56
2021/06/12 11:24:44;;;;;;;3.92;3.22;;;;;;;23.41;66.28;100120.08;1717180;82;21364;-56
2021/06/12 11:27:55;;;;;;;3.80;3.40;;;;;;;23.60;66.82;100121.36;1684270;85;21275;-56
2021/06/12 11:31:04;;;;;;;4.72;3.22;;;;;;;23.83;67.24;100127.14;1684547;85;21231;-57
2021/06/12 11:34:29;;;;;;;4.22;2.90;;;;;;;24.00;66.29;100139.03;1684068;85;21192;-57
2021/06/12 11:37:39;;;;;;;4.85;3.10;;;;;;;24.06;63.29;100142.14;1684182;85;21231;-58
2021/06/12 11:40:46;;;;;;;5.17;3.65;;;;;;;24.06;62.33;100137.41;1684545;85;21251;-57
2021/06/12 11:44:00;;;;;;;3.65;3.25;;;;;;;24.13;61.94;100132.43;1687411;84;21200;-56
2021/06/12 11:47:06;;;;;;;4.28;3.35;;;;;;;24.28;61.29;100130.25;1712484;83;21733;-56
2021/06/12 11:50:12;;;;;;;3.90;3.50;;;;;;;24.40;60.01;100114.95;1712473;84;21212;-56
2021/06/12 11:53:34;;;;;;;6.67;3.90;;;;;;;24.53;60.58;100112.22;1712687;84;21338;-56
2021/06/12 11:56:40;;;;;;;5.83;4.03;;;;;;;24.65;59.89;100115.61;1713265;84;21830;-56
2021/06/12 11:59:49;;;;;;;4.95;3.83;;;;;;;24.69;58.69;100120.42;1713475;84;21280;-57
2021/06/12 12:03:06;;;;;;;4.12;3.47;;;;;;;24.67;57.70;100116.22;1713523;84;21260;-58
2021/06/12 12:06:11;;;;;;;4.80;3.72;;;;;;;24.64;58.83;100104.14;1701583;83;21266;-56
2021/06/12 12:09:18;;;;;;;4.03;3.60;;;;;;;24.68;59.36;100094.95;1711537;84;21311;-56
2021/06/12 12:12:26;;;;;;;7.17;3.08;;;;;;;24.78;58.59;100087.14;1710194;83;21740;-57
2021/06/12 12:15:50;;;;;;;5.03;3.30;;;;;;;24.85;57.15;100074.55;1712637;83;21212;-56
2021/06/12 12:19:03;;;;;;;3.98;3.05;;;;;;;24.93;57.02;100078.21;1713132;84;21350;-56
2021/06/12 12:22:11;;;;;;;4.08;2.80;;;;;;;25.01;56.15;100069.27;1712853;84;21227;-58
2021/06/12 12:25:23;;;;;;;6.62;3.10;;;;;;;25.14;54.64;100067.02;1713229;84;21286;-57
2021/06/12 12:28:26;;;;;;;4.25;3.47;;;;;;;25.26;54.58;100064.81;1712847;83;21347;-58
2021/06/12 12:31:33;;;;;;;3.75;2.90;;;;;;;25.34;54.74;100069.31;1712659;83;21223;-56
2021/06/12 12:34:46;;;;;;;3.85;3.17;;;;;;;25.44;54.42;100065.67;1712732;84;21271;-57
2021/06/12 12:37:52;;;;;;;4.35;2.80;;;;;;;25.48;55.00;100065.41;1712669;83;21354;-57
2021/06/12 12:40:58;;;;;;;5.85;3.10;;;;;;;25.59;55.02;100065.69;1712598;83;21695;-56
2021/06/12 12:44:23;;;;;;;4.22;3.05;;;;;;;25.67;54.05;100067.92;1712826;84;21890;-55
2021/06/12 12:47:32;;;;;;;6.55;3.60;;;;;;;25.72;53.89;100074.93;1713559;83;21315;-56
2021/06/12 12:50:37;;;;;;;3.80;3.30;;;;;;;25.73;53.60;100076.60;1712903;83;21409;-57
2021/06/12 12:53:51;;;;;;;3.92;3.33;;;;;;;25.70;53.34;100075.22;1712906;83;21227;-56
2021/06/12 12:57:05;;;;;;;4.08;3.25;;;;;;;25.74;53.27;100082.48;1712780;84;21842;-56
2021/06/12 13:00:11;;;;;;;5.03;4.40;;;;;;;25.80;52.92;100077.98;1684888;85;21315;-55
2021/06/12 13:03:21;;;;;;;5.65;4.00;;;;;;;25.90;52.94;100079.94;1688799;84;21383;-55
2021/06/12 13:06:46;;;;;;;4.30;3.67;;;;;;;26.06;52.99;100080.22;1683982;85;21299;-57
2021/06/12 13:10:12;;;;;;;4.53;3.83;;;;;;;26.15;52.07;100077.09;1683563;85;21223;-55
2021/06/12 13:13:22;;;;;;;4.50;3.47;;;;;;;26.23;52.37;100077.92;1684389;85;21244;-56
2021/06/12 13:16:28;;;;;;;5.85;3.98;;;;;;;26.35;51.85;100074.25;1684500;85;21283;-56
2021/06/12 13:19:59;;;;;;;6.75;3.55;;;;;;;26.44;51.91;100078.13;1684575;85;21784;-56
2021/06/12 13:23:05;;;;;;;4.25;3.05;;;;;;;26.49;51.22;100061.27;1685899;84;21235;-56
2021/06/12 13:26:30;;;;;;;3.25;2.80;;;;;;;26.56;50.32;100060.96;1687507;85;21395;-55
2021/06/12 13:29:35;;;;;;;4.17;2.80;;;;;;;26.61;50.31;100058.95;1687400;85;21294;-57
2021/06/12 13:32:40;;;;;;;4.70;3.85;;;;;;;26.65;49.98;100053.64;1687963;85;21420;-57
2021/06/12 13:35:52;;;;;;;3.42;2.92;;;;;;;26.57;50.39;100050.84;1687786;85;21407;-55
2021/06/12 13:39:02;;;;;;;3.83;2.83;;;;;;;26.43;50.85;100042.77;1688194;85;21427;-57
2021/06/12 13:42:20;;;;;;;3.25;2.85;;;;;;;26.33;51.32;100038.59;1688175;85;21287;-56
2021/06/12 13:45:26;;;;;;;3.70;2.90;;;;;;;26.23;51.63;100033.02;1673042;86;21266;-59
2021/06/12 13:48:34;;;;;;;4.28;2.95;;;;;;;26.14;52.88;100036.98;1683654;84;21200;-58
2021/06/12 13:51:57;;;;;;;4.17;3.20;;;;;;;26.07;53.18;100031.38;1716903;83;21699;-56
2021/06/12 13:55:04;;;;;;;5.58;2.87;;;;;;;25.97;53.00;100028.59;1716489;83;21281;-56
2021/06/12 13:58:08;;;;;;;3.17;2.87;;;;;;;25.97;53.08;100031.40;1716092;83;21203;-57
2021/06/12 14:01:17;;;;;;;4.83;3.05;;;;;;;25.93;53.17;100033.08;1716233;83;21225;-56
2021/06/12 14:04:22;;;;;;;4.15;3.17;;;;;;;25.94;53.12;100029.98;1716229;83;22211;-56
2021/06/12 14:07:27;;;;;;;3.10;2.67;;;;;;;26.00;54.36;100035.92;1716044;83;21203;-55
2021/06/12 14:10:32;;;;;;;4.12;3.05;;;;;;;26.10;53.63;100032.24;1716917;83;21557;-56
2021/06/12 14:13:39;;;;;;;5.08;2.80;;;;;;;26.15;52.96;100025.18;1716245;83;21239;-57
2021/06/12 14:16:44;;;;;;;10.40;3.20;;;;;;;26.21;53.51;100031.08;1715706;83;21183;-57
2021/06/12 14:19:50;;;;;;;11.22;3.83;;;;;;;26.16;54.19;100029.10;1715692;83;21232;-57
2021/06/12 14:22:56;;;;;;;8.40;3.58;;;;;;;26.02;55.15;100035.63;1711457;82;21314;-58
2021/06/12 14:26:02;;;;;;;11.65;3.50;;;;;;;25.77;55.80;100035.63;1703874;83;21382;-58
2021/06/12 14:29:11;;;;;;;9.15;3.45;;;;;;;25.52;56.46;100036.53;1692373;84;21849;-57